sensor_id;sensor_type;location;lat;lon;timestamp;P1;durP1;ratioP1;P2;durP2;ratioP2
55330;SDS011;58851;42.984;20.336;2023-02-01T00:00:33;36.20;;;21.88;;
55330;SDS011;58851;42.984;20.336;2023-02-01T00:02:59;34.63;;;21.05;;
55330;SDS011;58851;42.984;20.336;2023-02-01T00:05:25;43.13;;;22.95;;
55330;SDS011;58851;42.984;20.336;2023-02-01T00:07:51;35.90;;;20.63;;
55330;SDS011;58851;42.984;20.336;2023-02-01T00:10:17;30.73;;;18.50;;
55330;SDS011;58851;42.984;20.336;2023-02-01T00:12:43;32.58;;;18.90;;
55330;SDS011;58851;42.984;20.336;2023-02-01T00:15:09;20.90;;;12.13;;
55330;SDS011;58851;42.984;20.336;2023-02-01T00:17:34;24.92;;;15.40;;
55330;SDS011;58851;42.984;20.336;2023-02-01T00:20:00;40.70;;;24.27;;
55330;SDS011;58851;42.984;20.336;2023-02-01T00:22:27;31.27;;;20.92;;
55330;SDS011;58851;42.984;20.336;2023-02-01T00:24:52;71.32;;;35.70;;
55330;SDS011;58851;42.984;20.336;2023-02-01T00:27:18;48.10;;;27.77;;
55330;SDS011;58851;42.984;20.336;2023-02-01T00:29:46;48.00;;;26.75;;
55330;SDS011;58851;42.984;20.336;2023-02-01T00:32:12;49.13;;;28.02;;
55330;SDS011;58851;42.984;20.336;2023-02-01T00:34:38;53.58;;;32.75;;
55330;SDS011;58851;42.984;20.336;2023-02-01T00:37:03;49.95;;;31.35;;
55330;SDS011;58851;42.984;20.336;2023-02-01T00:39:29;56.55;;;33.13;;
55330;SDS011;58851;42.984;20.336;2023-02-01T00:41:55;52.58;;;32.58;;
55330;SDS011;58851;42.984;20.336;2023-02-01T00:44:21;71.47;;;43.35;;
55330;SDS011;58851;42.984;20.336;2023-02-01T00:46:46;99.68;;;56.35;;
55330;SDS011;58851;42.984;20.336;2023-02-01T00:49:12;97.78;;;53.60;;
55330;SDS011;58851;42.984;20.336;2023-02-01T00:51:38;92.65;;;53.85;;
55330;SDS011;58851;42.984;20.336;2023-02-01T00:54:03;101.82;;;60.50;;
55330;SDS011;58851;42.984;20.336;2023-02-01T00:56:29;98.13;;;55.55;;
55330;SDS011;58851;42.984;20.336;2023-02-01T00:58:55;64.43;;;36.00;;
55330;SDS011;58851;42.984;20.336;2023-02-01T01:01:25;41.45;;;23.33;;
55330;SDS011;58851;42.984;20.336;2023-02-01T01:03:58;62.67;;;34.92;;
55330;SDS011;58851;42.984;20.336;2023-02-01T01:06:34;98.03;;;51.42;;
55330;SDS011;58851;42.984;20.336;2023-02-01T01:09:01;68.22;;;32.53;;
55330;SDS011;58851;42.984;20.336;2023-02-01T01:11:31;65.85;;;37.17;;
55330;SDS011;58851;42.984;20.336;2023-02-01T01:13:59;59.88;;;33.40;;
55330;SDS011;58851;42.984;20.336;2023-02-01T01:16:26;45.28;;;26.98;;
55330;SDS011;58851;42.984;20.336;2023-02-01T01:18:53;138.77;;;70.32;;
55330;SDS011;58851;42.984;20.336;2023-02-01T01:21:19;109.32;;;56.83;;
55330;SDS011;58851;42.984;20.336;2023-02-01T01:23:45;137.48;;;73.97;;
55330;SDS011;58851;42.984;20.336;2023-02-01T01:26:16;100.90;;;57.30;;
55330;SDS011;58851;42.984;20.336;2023-02-01T01:28:45;114.90;;;60.17;;
55330;SDS011;58851;42.984;20.336;2023-02-01T01:31:12;112.88;;;60.47;;
55330;SDS011;58851;42.984;20.336;2023-02-01T01:33:39;46.53;;;27.58;;
55330;SDS011;58851;42.984;20.336;2023-02-01T01:36:06;36.08;;;21.05;;
55330;SDS011;58851;42.984;20.336;2023-02-01T01:38:36;54.13;;;33.20;;
55330;SDS011;58851;42.984;20.336;2023-02-01T01:41:02;45.65;;;26.42;;
55330;SDS011;58851;42.984;20.336;2023-02-01T01:43:44;41.42;;;24.30;;
55330;SDS011;58851;42.984;20.336;2023-02-01T01:46:15;32.47;;;21.80;;
55330;SDS011;58851;42.984;20.336;2023-02-01T01:48:41;30.17;;;19.23;;
55330;SDS011;58851;42.984;20.336;2023-02-01T01:51:08;28.73;;;19.40;;
55330;SDS011;58851;42.984;20.336;2023-02-01T01:53:38;32.38;;;20.85;;
55330;SDS011;58851;42.984;20.336;2023-02-01T01:56:10;30.55;;;17.02;;
55330;SDS011;58851;42.984;20.336;2023-02-01T01:58:37;40.03;;;21.55;;
55330;SDS011;58851;42.984;20.336;2023-02-01T02:01:02;39.30;;;21.42;;
55330;SDS011;58851;42.984;20.336;2023-02-01T02:03:33;50.05;;;29.05;;
55330;SDS011;58851;42.984;20.336;2023-02-01T02:06:03;60.13;;;38.33;;
55330;SDS011;58851;42.984;20.336;2023-02-01T02:08:34;48.40;;;29.80;;
55330;SDS011;58851;42.984;20.336;2023-02-01T02:11:00;31.00;;;19.40;;
55330;SDS011;58851;42.984;20.336;2023-02-01T02:13:27;30.05;;;18.83;;
55330;SDS011;58851;42.984;20.336;2023-02-01T02:27:17;213.30;;;95.32;;
55330;SDS011;58851;42.984;20.336;2023-02-01T02:38:29;36.75;;;21.70;;
55330;SDS011;58851;42.984;20.336;2023-02-01T02:41:46;29.88;;;19.10;;
55330;SDS011;58851;42.984;20.336;2023-02-01T02:47:43;20.85;;;12.18;;
55330;SDS011;58851;42.984;20.336;2023-02-01T02:53:38;16.23;;;13.18;;
55330;SDS011;58851;42.984;20.336;2023-02-01T02:56:25;25.38;;;18.60;;
55330;SDS011;58851;42.984;20.336;2023-02-01T02:59:11;25.38;;;16.88;;
55330;SDS011;58851;42.984;20.336;2023-02-01T03:01:58;31.40;;;18.27;;
55330;SDS011;58851;42.984;20.336;2023-02-01T03:04:42;32.17;;;20.67;;
55330;SDS011;58851;42.984;20.336;2023-02-01T03:07:15;41.15;;;23.83;;
55330;SDS011;58851;42.984;20.336;2023-02-01T03:13:11;71.45;;;44.75;;
55330;SDS011;58851;42.984;20.336;2023-02-01T03:18:30;64.70;;;42.50;;
55330;SDS011;58851;42.984;20.336;2023-02-01T03:21:02;56.00;;;38.80;;
55330;SDS011;58851;42.984;20.336;2023-02-01T03:23:32;55.78;;;37.95;;
55330;SDS011;58851;42.984;20.336;2023-02-01T03:26:01;48.03;;;33.10;;
55330;SDS011;58851;42.984;20.336;2023-02-01T03:28:29;69.07;;;39.55;;
55330;SDS011;58851;42.984;20.336;2023-02-01T03:30:58;34.97;;;22.05;;
55330;SDS011;58851;42.984;20.336;2023-02-01T03:33:25;29.05;;;20.00;;
55330;SDS011;58851;42.984;20.336;2023-02-01T03:39:01;61.05;;;37.63;;
55330;SDS011;58851;42.984;20.336;2023-02-01T03:41:53;69.88;;;40.97;;
55330;SDS011;58851;42.984;20.336;2023-02-01T03:44:26;74.65;;;42.97;;
55330;SDS011;58851;42.984;20.336;2023-02-01T03:49:29;66.40;;;36.80;;
55330;SDS011;58851;42.984;20.336;2023-02-01T03:51:59;70.90;;;37.50;;
55330;SDS011;58851;42.984;20.336;2023-02-01T03:54:26;70.53;;;42.75;;
55330;SDS011;58851;42.984;20.336;2023-02-01T03:56:53;59.60;;;36.28;;
55330;SDS011;58851;42.984;20.336;2023-02-01T03:59:22;57.28;;;32.03;;
55330;SDS011;58851;42.984;20.336;2023-02-01T04:01:49;60.45;;;34.47;;
55330;SDS011;58851;42.984;20.336;2023-02-01T04:04:16;61.22;;;35.50;;
55330;SDS011;58851;42.984;20.336;2023-02-01T04:06:48;42.03;;;25.90;;
55330;SDS011;58851;42.984;20.336;2023-02-01T04:09:14;60.75;;;33.88;;
55330;SDS011;58851;42.984;20.336;2023-02-01T04:11:41;73.13;;;42.08;;
55330;SDS011;58851;42.984;20.336;2023-02-01T04:14:06;59.40;;;36.25;;
55330;SDS011;58851;42.984;20.336;2023-02-01T04:16:33;64.32;;;36.10;;
55330;SDS011;58851;42.984;20.336;2023-02-01T04:18:59;62.65;;;36.15;;
55330;SDS011;58851;42.984;20.336;2023-02-01T04:21:25;59.80;;;36.25;;
55330;SDS011;58851;42.984;20.336;2023-02-01T04:23:51;68.57;;;39.67;;
55330;SDS011;58851;42.984;20.336;2023-02-01T04:26:18;68.10;;;37.78;;
55330;SDS011;58851;42.984;20.336;2023-02-01T04:28:44;58.80;;;35.22;;
55330;SDS011;58851;42.984;20.336;2023-02-01T04:31:13;59.90;;;32.42;;
55330;SDS011;58851;42.984;20.336;2023-02-01T04:33:42;54.30;;;32.55;;
55330;SDS011;58851;42.984;20.336;2023-02-01T04:36:08;54.03;;;31.20;;
55330;SDS011;58851;42.984;20.336;2023-02-01T04:38:34;57.60;;;32.97;;
55330;SDS011;58851;42.984;20.336;2023-02-01T04:41:00;53.30;;;32.08;;
55330;SDS011;58851;42.984;20.336;2023-02-01T04:43:26;45.35;;;24.50;;
55330;SDS011;58851;42.984;20.336;2023-02-01T04:45:52;42.95;;;23.63;;
55330;SDS011;58851;42.984;20.336;2023-02-01T04:48:19;39.47;;;21.92;;
55330;SDS011;58851;42.984;20.336;2023-02-01T04:50:46;40.05;;;22.27;;
55330;SDS011;58851;42.984;20.336;2023-02-01T04:53:16;39.50;;;23.88;;
55330;SDS011;58851;42.984;20.336;2023-02-01T04:55:42;30.75;;;17.60;;
55330;SDS011;58851;42.984;20.336;2023-02-01T04:58:08;27.45;;;18.05;;
55330;SDS011;58851;42.984;20.336;2023-02-01T05:00:34;26.60;;;16.08;;
55330;SDS011;58851;42.984;20.336;2023-02-01T05:03:00;61.40;;;31.63;;
55330;SDS011;58851;42.984;20.336;2023-02-01T05:05:26;40.22;;;22.52;;
55330;SDS011;58851;42.984;20.336;2023-02-01T05:07:53;40.42;;;23.63;;
55330;SDS011;58851;42.984;20.336;2023-02-01T05:10:18;49.15;;;26.40;;
55330;SDS011;58851;42.984;20.336;2023-02-01T05:12:44;44.78;;;21.73;;
55330;SDS011;58851;42.984;20.336;2023-02-01T05:15:29;52.47;;;24.70;;
55330;SDS011;58851;42.984;20.336;2023-02-01T05:17:55;50.92;;;30.50;;
55330;SDS011;58851;42.984;20.336;2023-02-01T05:20:21;60.92;;;31.67;;
55330;SDS011;58851;42.984;20.336;2023-02-01T05:22:47;23.90;;;17.05;;
55330;SDS011;58851;42.984;20.336;2023-02-01T05:25:12;25.55;;;15.38;;
55330;SDS011;58851;42.984;20.336;2023-02-01T05:27:38;20.55;;;10.95;;
55330;SDS011;58851;42.984;20.336;2023-02-01T05:30:04;21.02;;;13.38;;
55330;SDS011;58851;42.984;20.336;2023-02-01T05:32:31;51.63;;;26.70;;
55330;SDS011;58851;42.984;20.336;2023-02-01T05:34:57;50.88;;;29.02;;
55330;SDS011;58851;42.984;20.336;2023-02-01T05:37:22;38.10;;;23.48;;
55330;SDS011;58851;42.984;20.336;2023-02-01T05:39:48;46.08;;;26.90;;
55330;SDS011;58851;42.984;20.336;2023-02-01T05:42:14;44.30;;;27.42;;
55330;SDS011;58851;42.984;20.336;2023-02-01T05:44:40;63.42;;;34.88;;
55330;SDS011;58851;42.984;20.336;2023-02-01T05:47:06;76.00;;;46.92;;
55330;SDS011;58851;42.984;20.336;2023-02-01T05:49:32;95.43;;;58.42;;
55330;SDS011;58851;42.984;20.336;2023-02-01T05:51:58;43.58;;;27.63;;
55330;SDS011;58851;42.984;20.336;2023-02-01T05:54:24;49.50;;;29.58;;
55330;SDS011;58851;42.984;20.336;2023-02-01T05:56:49;40.70;;;23.33;;
55330;SDS011;58851;42.984;20.336;2023-02-01T05:59:15;48.20;;;29.08;;
55330;SDS011;58851;42.984;20.336;2023-02-01T06:01:41;54.88;;;34.05;;
55330;SDS011;58851;42.984;20.336;2023-02-01T06:04:07;54.85;;;35.13;;
55330;SDS011;58851;42.984;20.336;2023-02-01T06:06:32;83.82;;;41.28;;
55330;SDS011;58851;42.984;20.336;2023-02-01T06:08:59;75.43;;;39.10;;
55330;SDS011;58851;42.984;20.336;2023-02-01T06:11:25;63.13;;;34.97;;
55330;SDS011;58851;42.984;20.336;2023-02-01T06:13:51;60.67;;;38.63;;
55330;SDS011;58851;42.984;20.336;2023-02-01T06:16:17;68.88;;;37.53;;
55330;SDS011;58851;42.984;20.336;2023-02-01T06:18:43;61.83;;;38.10;;
55330;SDS011;58851;42.984;20.336;2023-02-01T06:21:08;63.38;;;38.05;;
55330;SDS011;58851;42.984;20.336;2023-02-01T06:23:34;65.05;;;41.63;;
55330;SDS011;58851;42.984;20.336;2023-02-01T06:26:05;60.90;;;35.13;;
55330;SDS011;58851;42.984;20.336;2023-02-01T06:28:33;71.43;;;41.33;;
55330;SDS011;58851;42.984;20.336;2023-02-01T06:31:05;79.95;;;48.15;;
55330;SDS011;58851;42.984;20.336;2023-02-01T06:33:32;58.33;;;35.63;;
55330;SDS011;58851;42.984;20.336;2023-02-01T06:36:00;40.70;;;23.35;;
55330;SDS011;58851;42.984;20.336;2023-02-01T06:38:27;46.72;;;28.85;;
55330;SDS011;58851;42.984;20.336;2023-02-01T06:40:53;51.95;;;32.85;;
55330;SDS011;58851;42.984;20.336;2023-02-01T06:43:24;62.60;;;37.05;;
55330;SDS011;58851;42.984;20.336;2023-02-01T06:45:50;62.78;;;38.92;;
55330;SDS011;58851;42.984;20.336;2023-02-01T06:48:16;71.22;;;37.22;;
55330;SDS011;58851;42.984;20.336;2023-02-01T06:50:42;65.78;;;35.38;;
55330;SDS011;58851;42.984;20.336;2023-02-01T06:53:08;73.70;;;40.83;;
55330;SDS011;58851;42.984;20.336;2023-02-01T06:55:34;46.00;;;29.00;;
55330;SDS011;58851;42.984;20.336;2023-02-01T06:58:00;44.35;;;27.17;;
55330;SDS011;58851;42.984;20.336;2023-02-01T07:00:27;43.47;;;24.17;;
55330;SDS011;58851;42.984;20.336;2023-02-01T07:02:53;33.75;;;21.85;;
55330;SDS011;58851;42.984;20.336;2023-02-01T07:05:20;34.38;;;18.85;;
55330;SDS011;58851;42.984;20.336;2023-02-01T07:07:46;53.38;;;32.42;;
55330;SDS011;58851;42.984;20.336;2023-02-01T07:10:12;59.67;;;37.25;;
55330;SDS011;58851;42.984;20.336;2023-02-01T07:12:37;48.28;;;27.92;;
55330;SDS011;58851;42.984;20.336;2023-02-01T07:15:04;78.15;;;48.30;;
55330;SDS011;58851;42.984;20.336;2023-02-01T07:17:31;106.47;;;63.40;;
55330;SDS011;58851;42.984;20.336;2023-02-01T07:19:57;104.68;;;63.00;;
55330;SDS011;58851;42.984;20.336;2023-02-01T07:22:25;116.88;;;67.22;;
55330;SDS011;58851;42.984;20.336;2023-02-01T07:24:51;122.38;;;78.38;;
55330;SDS011;58851;42.984;20.336;2023-02-01T07:27:16;136.73;;;82.63;;
55330;SDS011;58851;42.984;20.336;2023-02-01T07:29:42;127.13;;;74.95;;
55330;SDS011;58851;42.984;20.336;2023-02-01T07:32:08;121.53;;;73.57;;
55330;SDS011;58851;42.984;20.336;2023-02-01T07:34:34;92.93;;;57.00;;
55330;SDS011;58851;42.984;20.336;2023-02-01T07:36:59;80.30;;;50.55;;
55330;SDS011;58851;42.984;20.336;2023-02-01T07:39:25;159.30;;;98.03;;
55330;SDS011;58851;42.984;20.336;2023-02-01T07:41:53;129.27;;;79.97;;
55330;SDS011;58851;42.984;20.336;2023-02-01T07:44:19;110.20;;;70.80;;
55330;SDS011;58851;42.984;20.336;2023-02-01T07:46:48;107.00;;;67.60;;
55330;SDS011;58851;42.984;20.336;2023-02-01T07:49:14;108.88;;;70.22;;
55330;SDS011;58851;42.984;20.336;2023-02-01T07:51:42;102.97;;;65.25;;
55330;SDS011;58851;42.984;20.336;2023-02-01T07:54:08;94.07;;;62.70;;
55330;SDS011;58851;42.984;20.336;2023-02-01T07:56:34;95.75;;;60.33;;
55330;SDS011;58851;42.984;20.336;2023-02-01T07:58:59;123.40;;;78.68;;
55330;SDS011;58851;42.984;20.336;2023-02-01T08:01:26;128.52;;;83.72;;
55330;SDS011;58851;42.984;20.336;2023-02-01T08:03:54;138.27;;;88.88;;
55330;SDS011;58851;42.984;20.336;2023-02-01T08:06:22;136.43;;;85.47;;
55330;SDS011;58851;42.984;20.336;2023-02-01T08:08:49;119.13;;;76.50;;
55330;SDS011;58851;42.984;20.336;2023-02-01T08:11:15;109.90;;;71.95;;
55330;SDS011;58851;42.984;20.336;2023-02-01T08:13:42;129.63;;;81.47;;
55330;SDS011;58851;42.984;20.336;2023-02-01T08:16:08;107.90;;;72.00;;
55330;SDS011;58851;42.984;20.336;2023-02-01T08:18:35;121.32;;;83.40;;
55330;SDS011;58851;42.984;20.336;2023-02-01T08:21:10;101.30;;;69.70;;
55330;SDS011;58851;42.984;20.336;2023-02-01T08:23:40;91.95;;;61.17;;
55330;SDS011;58851;42.984;20.336;2023-02-01T08:26:11;112.85;;;84.38;;
55330;SDS011;58851;42.984;20.336;2023-02-01T08:28:44;86.20;;;60.40;;
55330;SDS011;58851;42.984;20.336;2023-02-01T08:31:16;78.75;;;53.25;;
55330;SDS011;58851;42.984;20.336;2023-02-01T08:33:44;101.53;;;69.75;;
55330;SDS011;58851;42.984;20.336;2023-02-01T08:36:12;95.70;;;70.78;;
55330;SDS011;58851;42.984;20.336;2023-02-01T08:38:38;118.75;;;79.50;;
55330;SDS011;58851;42.984;20.336;2023-02-01T08:41:09;98.85;;;62.75;;
55330;SDS011;58851;42.984;20.336;2023-02-01T08:43:37;77.32;;;49.05;;
55330;SDS011;58851;42.984;20.336;2023-02-01T08:46:04;67.60;;;44.20;;
55330;SDS011;58851;42.984;20.336;2023-02-01T08:48:30;70.57;;;48.75;;
55330;SDS011;58851;42.984;20.336;2023-02-01T08:50:57;87.75;;;55.90;;
55330;SDS011;58851;42.984;20.336;2023-02-01T08:53:26;67.47;;;48.10;;
55330;SDS011;58851;42.984;20.336;2023-02-01T08:55:51;70.68;;;48.00;;
55330;SDS011;58851;42.984;20.336;2023-02-01T08:58:17;68.35;;;44.08;;
55330;SDS011;58851;42.984;20.336;2023-02-01T09:00:44;54.55;;;36.67;;
55330;SDS011;58851;42.984;20.336;2023-02-01T09:03:10;56.17;;;34.03;;
55330;SDS011;58851;42.984;20.336;2023-02-01T09:05:37;54.80;;;35.10;;
55330;SDS011;58851;42.984;20.336;2023-02-01T09:08:04;59.95;;;40.03;;
55330;SDS011;58851;42.984;20.336;2023-02-01T09:10:30;68.38;;;45.72;;
55330;SDS011;58851;42.984;20.336;2023-02-01T09:12:58;66.53;;;44.85;;
55330;SDS011;58851;42.984;20.336;2023-02-01T09:15:24;68.55;;;48.30;;
55330;SDS011;58851;42.984;20.336;2023-02-01T09:17:49;62.70;;;44.08;;
55330;SDS011;58851;42.984;20.336;2023-02-01T09:20:15;61.20;;;40.88;;
55330;SDS011;58851;42.984;20.336;2023-02-01T09:22:41;61.00;;;43.65;;
55330;SDS011;58851;42.984;20.336;2023-02-01T09:25:07;131.00;;;83.28;;
55330;SDS011;58851;42.984;20.336;2023-02-01T09:27:33;68.30;;;46.70;;
55330;SDS011;58851;42.984;20.336;2023-02-01T09:30:00;58.97;;;40.55;;
55330;SDS011;58851;42.984;20.336;2023-02-01T09:32:25;88.05;;;57.38;;
55330;SDS011;58851;42.984;20.336;2023-02-01T09:34:52;84.90;;;55.25;;
55330;SDS011;58851;42.984;20.336;2023-02-01T09:37:18;59.13;;;38.25;;
55330;SDS011;58851;42.984;20.336;2023-02-01T09:39:44;71.70;;;43.45;;
55330;SDS011;58851;42.984;20.336;2023-02-01T09:47:44;43.33;;;31.55;;
55330;SDS011;58851;42.984;20.336;2023-02-01T09:50:15;37.03;;;24.77;;
55330;SDS011;58851;42.984;20.336;2023-02-01T09:52:52;39.45;;;30.08;;
55330;SDS011;58851;42.984;20.336;2023-02-01T09:55:40;52.40;;;35.53;;
55330;SDS011;58851;42.984;20.336;2023-02-01T09:58:29;44.55;;;28.75;;
55330;SDS011;58851;42.984;20.336;2023-02-01T10:01:00;47.20;;;29.85;;
55330;SDS011;58851;42.984;20.336;2023-02-01T10:03:28;46.40;;;29.70;;
55330;SDS011;58851;42.984;20.336;2023-02-01T10:06:16;43.45;;;25.02;;
55330;SDS011;58851;42.984;20.336;2023-02-01T10:11:37;24.05;;;15.50;;
55330;SDS011;58851;42.984;20.336;2023-02-01T10:14:20;22.90;;;15.55;;
55330;SDS011;58851;42.984;20.336;2023-02-01T10:19:44;24.63;;;16.50;;
55330;SDS011;58851;42.984;20.336;2023-02-01T10:22:40;33.65;;;20.15;;
55330;SDS011;58851;42.984;20.336;2023-02-01T10:27:53;15.32;;;11.38;;
55330;SDS011;58851;42.984;20.336;2023-02-01T10:30:21;15.38;;;8.75;;
55330;SDS011;58851;42.984;20.336;2023-02-01T10:32:48;12.70;;;7.65;;
55330;SDS011;58851;42.984;20.336;2023-02-01T10:35:35;14.48;;;8.95;;
55330;SDS011;58851;42.984;20.336;2023-02-01T10:38:03;11.88;;;7.28;;
55330;SDS011;58851;42.984;20.336;2023-02-01T10:40:42;23.17;;;11.35;;
55330;SDS011;58851;42.984;20.336;2023-02-01T10:43:08;27.15;;;15.40;;
55330;SDS011;58851;42.984;20.336;2023-02-01T10:45:35;11.20;;;6.50;;
55330;SDS011;58851;42.984;20.336;2023-02-01T10:48:04;37.67;;;26.35;;
55330;SDS011;58851;42.984;20.336;2023-02-01T10:53:18;9.23;;;6.80;;
55330;SDS011;58851;42.984;20.336;2023-02-01T10:56:08;9.60;;;7.00;;
55330;SDS011;58851;42.984;20.336;2023-02-01T10:58:36;19.70;;;12.77;;
55330;SDS011;58851;42.984;20.336;2023-02-01T11:01:15;9.35;;;7.50;;
55330;SDS011;58851;42.984;20.336;2023-02-01T11:03:45;12.15;;;7.00;;
55330;SDS011;58851;42.984;20.336;2023-02-01T11:06:18;13.10;;;8.50;;
55330;SDS011;58851;42.984;20.336;2023-02-01T11:08:57;5.40;;;3.33;;
55330;SDS011;58851;42.984;20.336;2023-02-01T11:11:24;9.00;;;6.13;;
55330;SDS011;58851;42.984;20.336;2023-02-01T11:13:51;25.17;;;12.18;;
55330;SDS011;58851;42.984;20.336;2023-02-01T11:16:28;27.48;;;17.98;;
55330;SDS011;58851;42.984;20.336;2023-02-01T11:19:04;66.85;;;39.28;;
55330;SDS011;58851;42.984;20.336;2023-02-01T11:21:31;22.42;;;14.88;;
55330;SDS011;58851;42.984;20.336;2023-02-01T11:24:04;21.33;;;14.48;;
55330;SDS011;58851;42.984;20.336;2023-02-01T11:26:34;17.48;;;10.82;;
55330;SDS011;58851;42.984;20.336;2023-02-01T11:29:10;33.28;;;20.60;;
55330;SDS011;58851;42.984;20.336;2023-02-01T11:31:38;16.42;;;8.48;;
55330;SDS011;58851;42.984;20.336;2023-02-01T11:34:14;81.65;;;36.72;;
55330;SDS011;58851;42.984;20.336;2023-02-01T11:36:46;24.83;;;15.82;;
55330;SDS011;58851;42.984;20.336;2023-02-01T11:39:24;25.48;;;14.75;;
55330;SDS011;58851;42.984;20.336;2023-02-01T11:41:58;15.10;;;10.27;;
55330;SDS011;58851;42.984;20.336;2023-02-01T11:44:32;24.38;;;20.02;;
55330;SDS011;58851;42.984;20.336;2023-02-01T11:49:48;20.73;;;10.80;;
55330;SDS011;58851;42.984;20.336;2023-02-01T11:52:18;12.07;;;8.32;;
55330;SDS011;58851;42.984;20.336;2023-02-01T12:33:12;8.13;;;5.20;;
55330;SDS011;58851;42.984;20.336;2023-02-01T12:35:47;15.65;;;6.63;;
55330;SDS011;58851;42.984;20.336;2023-02-01T12:38:36;7.25;;;4.95;;
55330;SDS011;58851;42.984;20.336;2023-02-01T12:41:24;5.22;;;2.97;;
55330;SDS011;58851;42.984;20.336;2023-02-01T12:46:41;7.32;;;4.35;;
55330;SDS011;58851;42.984;20.336;2023-02-01T12:51:46;16.20;;;8.25;;
55330;SDS011;58851;42.984;20.336;2023-02-01T12:54:19;8.02;;;4.80;;
55330;SDS011;58851;42.984;20.336;2023-02-01T12:57:06;28.20;;;19.75;;
55330;SDS011;58851;42.984;20.336;2023-02-01T13:02:24;17.10;;;9.27;;
55330;SDS011;58851;42.984;20.336;2023-02-01T13:05:18;19.27;;;10.65;;
55330;SDS011;58851;42.984;20.336;2023-02-01T13:07:50;13.85;;;8.02;;
55330;SDS011;58851;42.984;20.336;2023-02-01T13:10:28;13.93;;;9.70;;
55330;SDS011;58851;42.984;20.336;2023-02-01T13:13:20;11.35;;;6.72;;
55330;SDS011;58851;42.984;20.336;2023-02-01T13:16:17;17.27;;;8.80;;
55330;SDS011;58851;42.984;20.336;2023-02-01T13:18:56;24.67;;;15.82;;
55330;SDS011;58851;42.984;20.336;2023-02-01T13:21:31;18.58;;;10.77;;
55330;SDS011;58851;42.984;20.336;2023-02-01T13:24:01;14.48;;;9.25;;
55330;SDS011;58851;42.984;20.336;2023-02-01T13:26:28;21.40;;;9.45;;
55330;SDS011;58851;42.984;20.336;2023-02-01T13:29:01;23.85;;;13.50;;
55330;SDS011;58851;42.984;20.336;2023-02-01T13:34:27;13.68;;;7.45;;
55330;SDS011;58851;42.984;20.336;2023-02-01T13:42:49;19.50;;;12.38;;
55330;SDS011;58851;42.984;20.336;2023-02-01T13:45:35;20.88;;;13.55;;
55330;SDS011;58851;42.984;20.336;2023-02-01T13:48:14;6.73;;;4.60;;
55330;SDS011;58851;42.984;20.336;2023-02-01T13:50:55;11.73;;;5.88;;
55330;SDS011;58851;42.984;20.336;2023-02-01T13:53:25;20.60;;;11.93;;
55330;SDS011;58851;42.984;20.336;2023-02-01T13:58:43;8.57;;;6.15;;
55330;SDS011;58851;42.984;20.336;2023-02-01T14:03:49;20.15;;;8.77;;
55330;SDS011;58851;42.984;20.336;2023-02-01T14:11:52;14.40;;;8.80;;
55330;SDS011;58851;42.984;20.336;2023-02-01T14:19:21;17.73;;;9.82;;
55330;SDS011;58851;42.984;20.336;2023-02-01T14:21:51;18.75;;;9.20;;
55330;SDS011;58851;42.984;20.336;2023-02-01T14:24:24;17.38;;;9.63;;
55330;SDS011;58851;42.984;20.336;2023-02-01T14:27:02;29.83;;;14.30;;
55330;SDS011;58851;42.984;20.336;2023-02-01T14:32:05;30.90;;;21.70;;
55330;SDS011;58851;42.984;20.336;2023-02-01T14:58:05;48.92;;;28.35;;
55330;SDS011;58851;42.984;20.336;2023-02-01T15:00:54;44.70;;;29.45;;
55330;SDS011;58851;42.984;20.336;2023-02-01T15:03:43;59.83;;;33.50;;
55330;SDS011;58851;42.984;20.336;2023-02-01T15:06:33;46.90;;;27.73;;
55330;SDS011;58851;42.984;20.336;2023-02-01T15:14:40;22.35;;;15.07;;
55330;SDS011;58851;42.984;20.336;2023-02-01T15:20:13;41.77;;;24.73;;
55330;SDS011;58851;42.984;20.336;2023-02-01T15:22:40;37.72;;;23.73;;
55330;SDS011;58851;42.984;20.336;2023-02-01T15:25:17;47.20;;;31.40;;
55330;SDS011;58851;42.984;20.336;2023-02-01T15:27:45;63.25;;;30.15;;
55330;SDS011;58851;42.984;20.336;2023-02-01T15:30:18;50.03;;;24.88;;
55330;SDS011;58851;42.984;20.336;2023-02-01T15:46:36;22.63;;;14.55;;
55330;SDS011;58851;42.984;20.336;2023-02-01T15:49:04;110.10;;;39.30;;
55330;SDS011;58851;42.984;20.336;2023-02-01T15:51:43;56.13;;;32.30;;
55330;SDS011;58851;42.984;20.336;2023-02-01T15:54:16;113.40;;;58.42;;
55330;SDS011;58851;42.984;20.336;2023-02-01T15:56:49;75.28;;;47.30;;
55330;SDS011;58851;42.984;20.336;2023-02-01T15:59:19;80.53;;;51.28;;
55330;SDS011;58851;42.984;20.336;2023-02-01T16:01:50;126.15;;;81.60;;
55330;SDS011;58851;42.984;20.336;2023-02-01T16:04:17;55.47;;;32.65;;
55330;SDS011;58851;42.984;20.336;2023-02-01T16:06:57;92.25;;;60.95;;
55330;SDS011;58851;42.984;20.336;2023-02-01T16:10:03;78.80;;;58.92;;
55330;SDS011;58851;42.984;20.336;2023-02-01T16:15:08;97.13;;;59.05;;
55330;SDS011;58851;42.984;20.336;2023-02-01T16:17:34;99.70;;;60.20;;
55330;SDS011;58851;42.984;20.336;2023-02-01T16:20:00;123.22;;;73.80;;
55330;SDS011;58851;42.984;20.336;2023-02-01T16:22:26;77.63;;;52.38;;
55330;SDS011;58851;42.984;20.336;2023-02-01T16:24:51;59.55;;;39.75;;
55330;SDS011;58851;42.984;20.336;2023-02-01T16:27:17;74.38;;;42.75;;
55330;SDS011;58851;42.984;20.336;2023-02-01T16:29:43;55.42;;;36.28;;
55330;SDS011;58851;42.984;20.336;2023-02-01T16:32:18;55.90;;;37.95;;
55330;SDS011;58851;42.984;20.336;2023-02-01T16:34:46;76.00;;;47.72;;
55330;SDS011;58851;42.984;20.336;2023-02-01T16:37:13;66.55;;;41.60;;
55330;SDS011;58851;42.984;20.336;2023-02-01T16:39:41;54.47;;;36.17;;
55330;SDS011;58851;42.984;20.336;2023-02-01T16:42:11;59.38;;;33.95;;
55330;SDS011;58851;42.984;20.336;2023-02-01T16:44:38;56.75;;;32.13;;
55330;SDS011;58851;42.984;20.336;2023-02-01T16:47:08;45.28;;;26.13;;
55330;SDS011;58851;42.984;20.336;2023-02-01T16:49:40;46.08;;;26.27;;
55330;SDS011;58851;42.984;20.336;2023-02-01T16:52:08;41.15;;;27.17;;
55330;SDS011;58851;42.984;20.336;2023-02-01T16:54:42;67.40;;;39.85;;
55330;SDS011;58851;42.984;20.336;2023-02-01T16:57:11;71.53;;;43.45;;
55330;SDS011;58851;42.984;20.336;2023-02-01T16:59:40;55.60;;;34.78;;
55330;SDS011;58851;42.984;20.336;2023-02-01T17:02:13;45.30;;;26.42;;
55330;SDS011;58851;42.984;20.336;2023-02-01T17:04:41;83.15;;;50.13;;
55330;SDS011;58851;42.984;20.336;2023-02-01T17:07:25;64.88;;;40.30;;
55330;SDS011;58851;42.984;20.336;2023-02-01T17:09:52;60.80;;;38.42;;
55330;SDS011;58851;42.984;20.336;2023-02-01T17:12:22;47.83;;;30.15;;
55330;SDS011;58851;42.984;20.336;2023-02-01T17:14:53;56.08;;;34.35;;
55330;SDS011;58851;42.984;20.336;2023-02-01T17:17:19;40.97;;;25.85;;
55330;SDS011;58851;42.984;20.336;2023-02-01T17:19:46;64.18;;;42.25;;
55330;SDS011;58851;42.984;20.336;2023-02-01T17:22:21;56.88;;;39.65;;
55330;SDS011;58851;42.984;20.336;2023-02-01T17:24:48;128.85;;;80.75;;